Time;durP1;ratioP1;P1;durP2;ratioP2;P2;SDS_P1;SDS_P2;PMS_P1;PMS_P2;Temp;Humidity;BMP_temperature;BMP_pressure;BME280_temperature;BME280_humidity;BME280_pressure;Samples;Min_cycle;Max_cycle;Signal;HPM_P1;HPM_P2
2023/09/29 00:00:41;;;;;;;19.90;6.00;;;;;;;15.82;100.00;101410.09;5092772;28;20033;-68
2023/09/29 00:03:08;;;;;;;21.50;6.25;;;;;;;15.75;100.00;101424.34;5092958;28;20033;-65
2023/09/29 00:05:33;;;;;;;22.60;6.40;;;;;;;15.74;100.00;101421.69;5088941;28;20406;-70
2023/09/29 00:07:59;;;;;;;21.23;6.63;;;;;;;15.68;100.00;101414.63;5092668;28;20024;-63
2023/09/29 00:10:24;;;;;;;22.63;6.60;;;;;;;15.71;100.00;101413.72;5092818;28;20123;-67
2023/09/29 00:12:50;;;;;;;21.10;6.40;;;;;;;15.74;100.00;101417.25;5092626;28;20031;-68
2023/09/29 00:15:17;;;;;;;22.45;6.20;;;;;;;15.72;100.00;101415.50;5092709;28;20028;-61
2023/09/29 00:17:43;;;;;;;22.15;6.35;;;;;;;15.71;100.00;101414.59;5092762;28;20182;-66
2023/09/29 00:20:26;;;;;;;21.70;6.55;;;;;;;15.71;100.00;101413.72;5092590;28;20098;-67
2023/09/29 00:22:53;;;;;;;21.15;6.20;;;;;;;15.73;100.00;101417.25;5092578;28;20471;-66
2023/09/29 00:25:19;;;;;;;20.55;6.07;;;;;;;15.78;100.00;101419.00;5092648;28;20056;-65
2023/09/29 00:27:45;;;;;;;21.45;6.18;;;;;;;15.83;100.00;101413.66;5092488;28;20048;-70
2023/09/29 00:30:14;;;;;;;22.23;6.25;;;;;;;15.87;100.00;101407.38;5091214;28;20040;-67
2023/09/29 00:32:51;;;;;;;21.65;6.45;;;;;;;15.90;100.00;101411.81;5092685;28;20475;-65
2023/09/29 00:37:49;;;;;;;20.27;6.47;;;;;;;15.96;100.00;101415.31;5095080;28;20028;-66
2023/09/29 00:40:15;;;;;;;22.50;6.45;;;;;;;15.97;100.00;101401.06;5096436;28;20093;-67
2023/09/29 00:42:42;;;;;;;20.25;6.22;;;;;;;16.00;100.00;101408.16;5096492;28;20033;-68
2023/09/29 00:45:08;;;;;;;20.77;6.22;;;;;;;16.01;100.00;101404.59;5096383;28;20059;-68
2023/09/29 00:47:36;;;;;;;20.38;5.97;;;;;;;16.01;100.00;101409.94;5092322;28;20032;-68
2023/09/29 00:50:04;;;;;;;22.77;6.35;;;;;;;16.04;100.00;101402.78;5096476;28;20032;-67
2023/09/29 00:52:30;;;;;;;20.67;6.15;;;;;;;16.08;100.00;101392.13;5096219;28;20031;-67
2023/09/29 00:54:56;;;;;;;21.02;6.38;;;;;;;16.08;100.00;101393.00;5096362;28;20032;-67
2023/09/29 00:57:21;;;;;;;19.40;5.60;;;;;;;16.12;100.00;101393.81;5096157;28;20097;-67
2023/09/29 00:59:48;;;;;;;18.63;6.00;;;;;;;16.15;100.00;101399.13;5096034;28;20031;-67
2023/09/29 01:02:14;;;;;;;19.85;5.78;;;;;;;16.14;100.00;101390.25;5095949;28;20031;-65
2023/09/29 01:04:39;;;;;;;20.55;6.13;;;;;;;16.13;100.00;101393.81;5096093;28;20028;-66
2023/09/29 01:07:06;;;;;;;19.08;6.05;;;;;;;16.14;100.00;101389.38;5096204;28;20051;-67
2023/09/29 01:09:31;;;;;;;19.52;6.07;;;;;;;16.14;100.00;101386.72;5095837;28;20060;-66
2023/09/29 01:11:59;;;;;;;18.88;5.70;;;;;;;16.15;100.00;101392.03;5095919;28;20075;-67
2023/09/29 01:14:25;;;;;;;20.95;5.93;;;;;;;16.14;100.00;101387.59;5095778;28;20093;-67
2023/09/29 01:16:51;;;;;;;19.27;5.90;;;;;;;16.15;100.00;101373.34;5095669;28;20463;-67
2023/09/29 01:19:17;;;;;;;19.05;5.90;;;;;;;16.16;100.00;101371.56;5096129;28;20028;-67
2023/09/29 01:21:46;;;;;;;17.20;5.60;;;;;;;16.15;100.00;101367.13;5095879;28;20383;-67
2023/09/29 01:24:11;;;;;;;18.95;5.78;;;;;;;16.17;100.00;101365.34;5095579;28;20154;-67
2023/09/29 01:26:37;;;;;;;18.70;5.68;;;;;;;16.16;100.00;101366.22;5095813;28;20131;-67
2023/09/29 01:29:03;;;;;;;18.52;5.32;;;;;;;16.16;100.00;101360.91;5095568;28;20076;-67
2023/09/29 01:31:29;;;;;;;17.98;5.60;;;;;;;16.15;100.00;101352.03;5095677;28;20393;-68
2023/09/29 01:33:55;;;;;;;18.40;5.43;;;;;;;16.15;100.00;101361.78;5095657;28;20028;-65
2023/09/29 01:36:20;;;;;;;18.08;5.40;;;;;;;16.13;100.00;101352.94;5095249;28;20093;-69
2023/09/29 01:38:46;;;;;;;17.38;5.40;;;;;;;16.15;100.00;101345.78;5095323;28;20035;-70
2023/09/29 01:41:13;;;;;;;19.17;5.43;;;;;;;16.15;100.00;101341.34;5095443;28;20108;-73
2023/09/29 01:43:39;;;;;;;20.13;5.50;;;;;;;16.15;100.00;101330.69;5095185;28;20024;-63
2023/09/29 01:46:07;;;;;;;17.30;5.13;;;;;;;16.17;100.00;101336.88;5095192;28;20024;-67
2023/09/29 01:48:33;;;;;;;17.05;4.75;;;;;;;16.19;100.00;101343.09;5094609;28;20435;-66
2023/09/29 01:51:01;;;;;;;16.35;4.45;;;;;;;16.19;100.00;101343.09;5095080;28;20176;-68
2023/09/29 01:53:30;;;;;;;17.80;4.88;;;;;;;16.22;100.00;101334.16;5095029;28;20180;-66
2023/09/29 01:55:56;;;;;;;17.83;4.75;;;;;;;16.23;100.00;101322.59;5095124;28;20020;-65
2023/09/29 01:58:23;;;;;;;16.88;4.80;;;;;;;16.25;100.00;101330.56;5094982;28;20039;-75
2023/09/29 02:00:49;;;;;;;17.15;4.85;;;;;;;16.25;100.00;101328.81;5094930;28;20056;-71
2023/09/29 02:03:15;;;;;;;17.17;4.70;;;;;;;16.22;100.00;101323.47;5095028;28;20516;-69
2023/09/29 02:05:41;;;;;;;16.83;4.78;;;;;;;16.27;100.00;101323.47;5094829;28;20035;-71
2023/09/29 02:08:09;;;;;;;17.42;4.70;;;;;;;16.26;100.00;101313.69;5093552;28;20012;-70
2023/09/29 02:10:35;;;;;;;16.33;4.53;;;;;;;16.25;100.00;101310.13;5090875;28;20039;-71
2023/09/29 02:13:03;;;;;;;17.40;4.60;;;;;;;16.26;100.00;101311.88;5094967;28;20410;-70
2023/09/29 02:15:29;;;;;;;15.40;4.40;;;;;;;16.26;100.00;101317.22;5094409;28;20062;-73
2023/09/29 02:17:54;;;;;;;16.67;4.50;;;;;;;16.26;100.00;101319.88;5094891;28;20111;-74
2023/09/29 02:20:30;;;;;;;16.13;4.57;;;;;;;16.24;100.00;101321.69;5093539;28;20046;-73
2023/09/29 02:22:59;;;;;;;16.35;4.68;;;;;;;16.25;100.00;101304.81;5094501;28;20036;-73
2023/09/29 02:25:28;;;;;;;15.43;4.40;;;;;;;16.26;100.00;101309.22;5094526;28;20031;-74
2023/09/29 02:27:55;;;;;;;16.25;4.22;;;;;;;16.28;100.00;101303.88;5094405;28;20048;-72
2023/09/29 02:30:21;;;;;;;15.68;4.47;;;;;;;16.27;100.00;101295.00;5093089;28;20028;-74
2023/09/29 02:32:47;;;;;;;16.75;4.45;;;;;;;16.28;100.00;101298.53;5094188;28;20069;-71
2023/09/29 02:35:13;;;;;;;16.50;4.32;;;;;;;16.30;100.00;101305.63;5094344;28;20036;-74
2023/09/29 02:37:38;;;;;;;16.73;4.25;;;;;;;16.35;100.00;101295.78;5094187;28;20047;-72
2023/09/29 02:40:11;;;;;;;15.23;4.22;;;;;;;16.36;100.00;101292.19;5094321;28;20123;-73
2023/09/29 02:42:36;;;;;;;17.10;4.30;;;;;;;16.37;100.00;101288.63;5090403;28;20111;-73
2023/09/29 02:45:02;;;;;;;15.15;4.20;;;;;;;16.42;100.00;101282.38;5094023;28;20062;-74
2023/09/29 02:47:27;;;;;;;16.88;4.30;;;;;;;16.42;100.00;101277.91;5093886;28;20444;-71
2023/09/29 02:49:53;;;;;;;14.88;3.95;;;;;;;16.44;100.00;101268.09;5094140;28;20024;-73
2023/09/29 02:52:20;;;;;;;17.80;4.40;;;;;;;16.46;100.00;101265.41;5094068;28;20036;-74
2023/09/29 02:54:45;;;;;;;16.23;4.20;;;;;;;16.45;100.00;101276.97;5094071;28;20028;-74
2023/09/29 02:57:11;;;;;;;15.82;3.92;;;;;;;16.43;100.00;101265.47;5093657;28;20497;-67
2023/09/29 02:59:37;;;;;;;14.82;4.30;;;;;;;16.43;100.00;101262.78;5093954;28;20036;-64
2023/09/29 03:02:03;;;;;;;13.10;4.07;;;;;;;16.46;100.00;101254.75;5093849;28;20130;-66
2023/09/29 03:04:29;;;;;;;16.90;4.25;;;;;;;16.47;100.00;101249.38;5093610;28;20106;-66
2023/09/29 03:06:56;;;;;;;15.80;4.30;;;;;;;16.50;100.00;101256.47;5093733;28;20113;-63
2023/09/29 03:09:22;;;;;;;16.17;4.00;;;;;;;16.50;100.00;101257.34;5093795;28;20028;-66
2023/09/29 03:11:47;;;;;;;17.35;4.35;;;;;;;16.52;100.00;101250.19;5092295;28;20088;-64
2023/09/29 03:14:15;;;;;;;14.18;4.10;;;;;;;16.51;100.00;101260.88;5093391;28;20032;-66
2023/09/29 03:16:41;;;;;;;16.15;4.25;;;;;;;16.52;100.00;101258.19;5093830;28;20036;-63
2023/09/29 03:19:08;;;;;;;14.00;4.00;;;;;;;16.54;100.00;101260.84;5093454;28;20046;-64
2023/09/29 03:21:33;;;;;;;13.07;3.95;;;;;;;16.51;100.00;101258.22;5093317;28;20032;-63
2023/09/29 03:24:00;;;;;;;15.55;4.32;;;;;;;16.51;100.00;101255.53;5093537;28;20030;-63
2023/09/29 03:26:26;;;;;;;15.60;4.45;;;;;;;16.46;100.00;101252.94;5093104;28;20030;-64
2023/09/29 03:28:54;;;;;;;16.40;4.50;;;;;;;16.43;100.00;101245.00;5093292;28;20078;-64
2023/09/29 03:31:22;;;;;;;15.02;4.28;;;;;;;16.42;100.00;101237.88;5093475;28;20027;-63
2023/09/29 03:33:47;;;;;;;14.95;4.20;;;;;;;16.42;100.00;101234.34;5093056;28;20588;-66
2023/09/29 03:36:14;;;;;;;16.52;4.40;;;;;;;16.42;100.00;101231.66;5093289;28;20119;-64
2023/09/29 03:38:40;;;;;;;16.30;4.38;;;;;;;16.40;100.00;101237.03;5093234;28;20058;-71
2023/09/29 03:41:07;;;;;;;15.77;4.28;;;;;;;16.38;100.00;101231.72;5093026;28;20494;-74
2023/09/29 03:43:32;;;;;;;15.95;4.28;;;;;;;16.37;100.00;101218.41;5093008;28;20471;-73
2023/09/29 03:45:58;;;;;;;15.77;4.40;;;;;;;16.36;100.00;101211.28;5093128;28;20089;-72
2023/09/29 03:48:25;;;;;;;15.13;4.20;;;;;;;16.38;100.00;101220.16;5093155;28;20032;-71
2023/09/29 03:50:50;;;;;;;15.63;4.45;;;;;;;16.36;100.00;101203.28;5092877;28;20097;-75
2023/09/29 03:53:16;;;;;;;14.65;4.05;;;;;;;16.36;100.00;101206.81;5093157;28;20461;-72
2023/09/29 03:55:42;;;;;;;17.25;4.20;;;;;;;16.35;100.00;101212.19;5092801;28;20115;-75
2023/09/29 03:58:07;;;;;;;16.13;4.40;;;;;;;16.32;100.00;101209.56;5092848;28;20058;-73
2023/09/29 04:00:33;;;;;;;15.07;4.38;;;;;;;16.33;100.00;101214.00;5092913;28;20119;-75
2023/09/29 04:02:58;;;;;;;14.82;4.40;;;;;;;16.33;100.00;101204.22;5092750;28;20020;-74
2023/09/29 04:05:24;;;;;;;12.40;4.10;;;;;;;16.31;100.00;101192.69;5092717;28;20103;-75
2023/09/29 04:07:49;;;;;;;15.57;4.20;;;;;;;16.34;100.00;101197.09;5091594;28;20032;-75
2023/09/29 04:10:14;;;;;;;16.08;4.20;;;;;;;16.33;100.00;101190.88;5092636;28;20467;-75
2023/09/29 04:12:47;;;;;;;15.95;4.20;;;;;;;16.34;100.00;101192.63;5097215;28;20040;-69
2023/09/29 04:15:13;;;;;;;12.82;4.18;;;;;;;16.36;100.00;101197.94;5096462;28;20052;-75
2023/09/29 04:17:39;;;;;;;12.95;4.07;;;;;;;16.37;100.00;101202.41;5099384;28;20114;-75
2023/09/29 04:20:05;;;;;;;15.48;4.20;;;;;;;16.39;100.00;101206.78;5099340;28;20024;-71
2023/09/29 04:22:32;;;;;;;14.63;4.18;;;;;;;16.42;100.00;101205.00;5098279;28;20067;-75
2023/09/29 04:24:57;;;;;;;15.73;4.45;;;;;;;16.43;100.00;101201.44;5099334;28;20117;-74
2023/09/29 04:27:23;;;;;;;16.20;4.20;;;;;;;16.45;100.00;101189.81;5099148;28;20064;-75
2023/09/29 04:29:49;;;;;;;13.80;4.18;;;;;;;16.46;100.00;101180.91;5099755;28;20028;-75
2023/09/29 04:32:15;;;;;;;15.77;4.28;;;;;;;16.46;100.00;101185.38;5099487;28;20390;-75
2023/09/29 04:34:40;;;;;;;12.73;4.20;;;;;;;16.46;100.00;101175.56;5099386;28;20020;-72
2023/09/29 04:37:06;;;;;;;15.57;4.30;;;;;;;16.48;100.00;101186.22;5095256;28;20039;-75
2023/09/29 04:39:31;;;;;;;13.88;4.00;;;;;;;16.49;100.00;101186.19;5099196;28;20016;-71
2023/09/29 04:41:56;;;;;;;13.45;4.32;;;;;;;16.52;100.00;101186.16;5099537;28;20149;-75
2023/09/29 04:44:21;;;;;;;14.93;4.25;;;;;;;16.54;100.00;101176.34;5099181;28;20433;-74
2023/09/29 04:46:47;;;;;;;15.30;4.20;;;;;;;16.55;100.00;101169.22;5099355;28;20387;-75
2023/09/29 04:49:12;;;;;;;14.55;4.30;;;;;;;16.55;100.00;101171.88;5099215;28;20043;-75
2023/09/29 04:51:38;;;;;;;15.27;4.03;;;;;;;16.57;100.00;101180.72;5099401;28;20073;-73
2023/09/29 04:54:04;;;;;;;14.25;4.25;;;;;;;16.58;100.00;101187.84;5098955;28;20028;-71
2023/09/29 04:56:29;;;;;;;14.25;4.28;;;;;;;16.56;100.00;101187.88;5099160;28;20110;-75
2023/09/29 04:58:54;;;;;;;14.63;4.20;;;;;;;16.59;100.00;101192.28;5098934;28;20091;-74
2023/09/29 05:01:21;;;;;;;14.38;4.32;;;;;;;16.62;100.00;101186.91;5097796;28;20020;-74
2023/09/29 05:03:50;;;;;;;17.02;4.78;;;;;;;16.69;100.00;101177.88;5099460;28;20478;-75
2023/09/29 05:06:16;;;;;;;12.38;4.13;;;;;;;16.71;100.00;101180.53;5098855;28;20084;-75
2023/09/29 05:08:42;;;;;;;16.30;4.30;;;;;;;16.73;100.00;101184.94;5098907;28;20107;-73
2023/09/29 05:11:07;;;;;;;16.60;4.50;;;;;;;16.76;100.00;101184.03;5099104;28;20382;-75
2023/09/29 05:13:33;;;;;;;13.55;4.05;;;;;;;16.78;100.00;101178.66;5098787;28;20367;-75
2023/09/29 05:15:58;;;;;;;13.80;4.32;;;;;;;16.77;100.00;101174.22;5098720;28;20039;-72
2023/09/29 05:18:24;;;;;;;12.23;4.03;;;;;;;16.78;100.00;101168.84;5099173;28;20441;-75
2023/09/29 05:20:50;;;;;;;16.20;4.32;;;;;;;16.79;100.00;101161.72;5098575;28;20032;-69
2023/09/29 05:23:16;;;;;;;13.00;4.25;;;;;;;16.82;100.00;101167.00;5096260;28;20044;-62
2023/09/29 05:25:46;;;;;;;15.68;4.40;;;;;;;16.82;100.00;101162.56;5095505;28;20038;-65
2023/09/29 05:28:11;;;;;;;12.38;4.03;;;;;;;16.84;100.00;101157.19;5095143;28;20067;-62
2023/09/29 05:30:37;;;;;;;15.45;4.28;;;;;;;16.83;100.00;101158.97;5095161;28;20060;-64
2023/09/29 05:33:02;;;;;;;16.83;4.30;;;;;;;16.82;100.00;101150.97;5095746;28;20036;-63
2023/09/29 05:35:28;;;;;;;16.40;4.57;;;;;;;16.84;100.00;101160.72;5095179;28;20081;-66
2023/09/29 05:37:53;;;;;;;13.48;4.22;;;;;;;16.87;100.00;101157.13;5095508;28;20031;-64
2023/09/29 05:40:19;;;;;;;16.27;4.57;;;;;;;16.91;100.00;101158.88;5095143;28;20032;-63
2023/09/29 05:42:44;;;;;;;15.25;4.10;;;;;;;16.91;100.00;101161.56;5087994;28;20035;-64
2023/09/29 05:45:12;;;;;;;17.63;4.30;;;;;;;16.94;100.00;101166.84;5095067;28;20024;-63
2023/09/29 05:47:37;;;;;;;18.25;4.72;;;;;;;16.98;100.00;101160.56;5094919;28;20031;-66
2023/09/29 05:50:03;;;;;;;27.50;5.75;;;;;;;17.00;100.00;101164.06;5094890;28;20020;-63
2023/09/29 05:52:28;;;;;;;21.02;4.95;;;;;;;17.03;100.00;101158.66;5091230;28;20020;-67
2023/09/29 05:54:53;;;;;;;17.00;4.25;;;;;;;17.09;100.00;101171.03;5094574;28;20429;-64
2023/09/29 05:57:19;;;;;;;17.27;4.50;;;;;;;17.13;100.00;101167.41;5090018;28;20032;-63
2023/09/29 05:59:44;;;;;;;20.55;4.95;;;;;;;17.18;100.00;101170.00;5095108;28;20032;-65
2023/09/29 06:02:10;;;;;;;23.55;5.00;;;;;;;17.21;100.00;101165.50;5094702;28;20032;-67
2023/09/29 06:04:35;;;;;;;18.23;4.50;;;;;;;17.26;100.00;101168.06;5094917;28;20028;-67
2023/09/29 06:07:01;;;;;;;15.00;4.10;;;;;;;17.25;100.00;101153.81;5093708;28;20044;-68
2023/09/29 06:09:26;;;;;;;16.83;4.30;;;;;;;17.32;100.00;101162.59;5094650;28;20387;-65
2023/09/29 06:11:51;;;;;;;15.85;4.40;;;;;;;17.35;100.00;101159.88;5094467;28;20115;-68
2023/09/29 06:14:17;;;;;;;13.93;4.20;;;;;;;17.37;100.00;101182.13;5094937;28;20055;-67
2023/09/29 06:16:42;;;;;;;16.70;4.45;;;;;;;17.45;100.00;101183.75;5094604;28;20024;-65
2023/09/29 06:19:07;;;;;;;14.90;4.38;;;;;;;17.50;100.00;101188.09;5094561;28;20028;-68
2023/09/29 06:21:33;;;;;;;16.92;4.55;;;;;;;17.62;100.00;101180.75;5094601;28;20043;-68
2023/09/29 06:23:58;;;;;;;16.02;4.43;;;;;;;17.66;100.00;101169.97;5094304;28;20024;-62
2023/09/29 06:26:23;;;;;;;13.15;3.90;;;;;;;17.68;100.00;101178.84;5093230;28;20031;-60
2023/09/29 06:28:49;;;;;;;15.07;4.15;;;;;;;17.71;100.00;101169.91;5093632;28;20094;-61
2023/09/29 06:31:14;;;;;;;14.32;3.97;;;;;;;17.73;100.00;101162.72;5092795;28;20371;-66
2023/09/29 06:33:40;;;;;;;15.63;4.40;;;;;;;17.77;100.00;101164.41;5094516;28;20085;-72
2023/09/29 06:36:05;;;;;;;13.70;4.28;;;;;;;17.81;100.00;101167.88;5093658;28;20498;-67
2023/09/29 06:38:31;;;;;;;14.50;4.22;;;;;;;17.85;100.00;101181.16;5094553;28;20549;-68
2023/09/29 06:40:58;;;;;;;16.02;4.25;;;;;;;17.90;100.00;101176.66;5094039;28;20036;-72
2023/09/29 06:43:24;;;;;;;16.15;4.20;;;;;;;17.97;100.00;101180.09;5094228;28;20067;-69
2023/09/29 06:45:49;;;;;;;15.07;4.18;;;;;;;18.01;100.00;101180.88;5093864;28;20059;-75
2023/09/29 06:48:14;;;;;;;14.65;4.07;;;;;;;18.07;100.00;101187.00;5094106;28;20039;-69
2023/09/29 06:50:40;;;;;;;15.93;3.80;;;;;;;18.12;100.00;101192.25;5092423;28;20464;-73
2023/09/29 06:53:05;;;;;;;14.50;3.83;;;;;;;18.15;100.00;101191.31;5091313;28;20036;-76
2023/09/29 06:55:31;;;;;;;14.20;3.83;;;;;;;18.17;100.00;101181.44;5083961;28;20059;-74
2023/09/29 06:57:58;;;;;;;12.38;3.80;;;;;;;18.20;100.00;101194.75;5083461;28;20060;-71
2023/09/29 07:00:24;;;;;;;15.13;3.80;;;;;;;18.20;100.00;101190.28;5083646;28;20115;-76
2023/09/29 07:02:49;;;;;;;12.38;3.72;;;;;;;18.24;100.00;101193.78;5082128;28;20456;-79
2023/09/29 07:05:15;;;;;;;13.32;3.78;;;;;;;18.31;100.00;101198.06;5082233;28;20029;-76
2023/09/29 07:07:41;;;;;;;15.25;3.90;;;;;;;18.31;100.00;101198.06;5082552;28;20141;-67
2023/09/29 07:10:06;;;;;;;11.57;3.47;;;;;;;18.30;100.00;101198.97;5084118;28;20032;-65
2023/09/29 07:12:32;;;;;;;13.13;3.75;;;;;;;18.33;100.00;101193.56;5082393;28;20036;-62
2023/09/29 07:14:57;;;;;;;13.25;3.80;;;;;;;18.42;100.00;101198.72;5083650;28;20033;-68
2023/09/29 07:17:23;;;;;;;12.75;3.72;;;;;;;18.49;100.00;101185.19;5092798;28;20534;-62
2023/09/29 07:19:48;;;;;;;10.50;3.75;;;;;;;18.58;100.00;101187.63;5080410;28;20095;-61
2023/09/29 07:22:14;;;;;;;12.60;3.63;;;;;;;18.62;100.00;101197.34;5069962;28;20031;-63
2023/09/29 07:24:41;;;;;;;12.35;3.80;;;;;;;18.66;100.00;101192.84;5088683;28;20066;-61
2023/09/29 07:27:08;;;;;;;12.43;3.70;;;;;;;18.74;100.00;101202.44;5072070;28;20040;-63
2023/09/29 07:29:34;;;;;;;12.73;3.80;;;;;;;18.89;100.00;101206.56;5063677;28;20101;-69
2023/09/29 07:31:59;;;;;;;12.07;3.60;;;;;;;19.05;100.00;101207.06;5072133;28;20483;-67
2023/09/29 07:34:27;;;;;;;13.27;3.60;;;;;;;19.23;100.00;101202.16;5067829;28;20043;-67
2023/09/29 07:36:53;;;;;;;11.23;3.50;;;;;;;19.40;100.00;101201.72;5072556;28;20048;-63
2023/09/29 07:39:18;;;;;;;11.73;3.75;;;;;;;19.60;100.00;101198.47;5072483;28;20437;-62
2023/09/29 07:41:43;;;;;;;13.07;3.60;;;;;;;19.72;100.00;101198.16;5072496;28;20033;-64
2023/09/29 07:44:09;;;;;;;14.82;3.50;;;;;;;19.76;100.00;101199.81;5072562;28;20073;-63
2023/09/29 07:46:35;;;;;;;11.15;3.38;;;;;;;19.82;100.00;101199.69;5072332;28;20118;-64
2023/09/29 07:49:02;;;;;;;11.23;3.30;;;;;;;19.95;100.00;101193.94;5072871;28;20047;-66
2023/09/29 07:51:28;;;;;;;12.80;3.70;;;;;;;20.15;100.00;101207.69;5072732;28;20365;-63
2023/09/29 07:53:53;;;;;;;11.85;3.40;;;;;;;20.28;100.00;101200.09;5072607;28;20017;-66
2023/09/29 07:56:18;;;;;;;12.43;3.85;;;;;;;20.28;100.00;101201.94;5070699;28;20028;-65
2023/09/29 07:58:44;;;;;;;13.32;3.50;;;;;;;20.31;100.00;101212.56;5068243;28;20025;-67
2023/09/29 08:01:10;;;;;;;11.93;3.50;;;;;;;20.38;100.00;101204.25;5072094;28;20078;-64
2023/09/29 08:03:36;;;;;;;10.70;3.28;;;;;;;20.44;100.00;101203.19;5070795;28;20028;-67
2023/09/29 08:06:01;;;;;;;12.38;3.60;;;;;;;20.51;100.00;101204.75;5068102;28;20098;-67
2023/09/29 08:08:26;;;;;;;12.27;3.63;;;;;;;20.60;100.00;101203.59;5068474;28;20028;-62
2023/09/29 08:10:55;;;;;;;11.68;3.33;;;;;;;20.73;100.00;101214.88;5068736;28;20040;-61
2023/09/29 08:13:23;;;;;;;11.75;3.55;;;;;;;20.71;100.00;101222.09;5066252;28;20029;-62
2023/09/29 08:15:49;;;;;;;11.98;3.40;;;;;;;20.70;100.00;101226.56;5068059;28;20065;-65
2023/09/29 08:18:15;;;;;;;12.32;3.50;;;;;;;20.86;100.00;101220.72;5070953;28;20056;-67
2023/09/29 08:20:41;;;;;;;11.20;3.50;;;;;;;20.94;100.00;101228.53;5072370;28;20115;-68
2023/09/29 08:23:06;;;;;;;13.13;3.60;;;;;;;21.03;100.00;101239.00;5064294;28;20957;-68
2023/09/29 08:25:33;;;;;;;13.00;3.50;;;;;;;21.03;100.00;101233.63;5062079;28;20036;-71
2023/09/29 08:28:02;;;;;;;12.13;3.40;;;;;;;21.15;100.00;101241.25;5072131;28;20449;-69
2023/09/29 08:30:27;;;;;;;11.90;3.30;;;;;;;21.27;100.00;101239.09;5072220;28;20127;-70
2023/09/29 08:32:53;;;;;;;14.25;3.70;;;;;;;21.27;100.00;101249.84;5072471;28;20104;-70
2023/09/29 08:35:18;;;;;;;12.45;3.40;;;;;;;21.13;100.00;101243.13;5069833;28;20491;-69
2023/09/29 08:37:44;;;;;;;11.23;3.45;;;;;;;20.99;100.00;101246.25;5063678;28;20279;-62
2023/09/29 08:40:12;;;;;;;11.90;3.70;;;;;;;21.10;100.00;101253.09;5068990;28;20500;-69
2023/09/29 08:42:39;;;;;;;12.57;3.70;;;;;;;21.04;100.00;101260.44;5072161;28;20067;-70
2023/09/29 08:45:09;;;;;;;14.27;3.60;;;;;;;21.06;100.00;101263.06;5070708;28;20475;-70
2023/09/29 08:47:36;;;;;;;11.45;3.55;;;;;;;20.97;100.00;101257.97;5068563;28;20021;-71
2023/09/29 08:50:04;;;;;;;13.00;3.67;;;;;;;20.92;100.00;101268.00;5100655;28;20029;-71
2023/09/29 08:52:31;;;;;;;13.30;3.42;;;;;;;20.90;100.00;101255.50;5070755;28;20104;-71
2023/09/29 08:54:57;;;;;;;13.80;3.60;;;;;;;20.96;100.00;101272.34;5072237;28;20033;-70
2023/09/29 08:57:25;;;;;;;14.52;3.70;;;;;;;20.96;100.00;101269.69;5071919;28;20072;-70
2023/09/29 08:59:52;;;;;;;12.30;3.50;;;;;;;21.26;100.00;101262.41;5075746;28;20032;-70
2023/09/29 09:02:18;;;;;;;14.27;3.63;;;;;;;21.66;100.00;101265.56;5076171;28;20102;-71
2023/09/29 09:04:43;;;;;;;17.50;4.20;;;;;;;21.41;100.00;101256.50;5074574;28;20506;-71
2023/09/29 09:07:09;;;;;;;13.90;3.70;;;;;;;21.31;100.00;101264.94;5075690;28;20036;-70
2023/09/29 09:09:36;;;;;;;13.95;3.60;;;;;;;21.35;100.00;101271.97;5075769;28;20028;-70
2023/09/29 09:12:02;;;;;;;13.15;3.63;;;;;;;21.32;100.00;101269.34;5070566;28;20383;-71
2023/09/29 09:14:40;;;;;;;12.05;3.40;;;;;;;21.29;100.00;101282.91;5075530;28;20029;-71
2023/09/29 09:17:06;;;;;;;12.85;3.50;;;;;;;21.11;100.00;101285.28;5072182;28;20035;-71
2023/09/29 09:19:43;;;;;;;15.07;3.70;;;;;;;20.94;100.00;101293.00;5071810;28;20028;-71
2023/09/29 09:22:14;;;;;;;11.18;3.50;;;;;;;20.59;100.00;101286.91;5072406;28;20028;-71
2023/09/29 09:24:40;;;;;;;13.52;3.65;;;;;;;20.13;100.00;101289.16;5075365;28;20024;-71
2023/09/29 09:27:05;;;;;;;16.25;3.88;;;;;;;19.98;100.00;101296.69;5075331;28;20041;-71
2023/09/29 09:29:30;;;;;;;15.65;3.97;;;;;;;20.04;100.00;101301.03;5075223;28;20029;-70
2023/09/29 09:31:59;;;;;;;13.52;3.78;;;;;;;20.23;100.00;101297.78;5074802;28;20566;-70
2023/09/29 09:34:37;;;;;;;13.05;3.58;;;;;;;20.38;100.00;101300.03;5071145;28;20025;-70
2023/09/29 09:37:03;;;;;;;15.00;3.85;;;;;;;20.44;100.00;101305.22;5071979;28;20113;-70
2023/09/29 09:39:29;;;;;;;13.95;3.60;;;;;;;20.47;100.00;101310.50;5073828;28;20463;-69
2023/09/29 09:41:57;;;;;;;14.57;3.90;;;;;;;20.48;100.00;101306.91;5070953;28;20409;-67
2023/09/29 09:44:25;;;;;;;13.50;3.70;;;;;;;20.46;100.00;101310.53;5075158;28;20028;-70
2023/09/29 09:46:53;;;;;;;12.95;3.40;;;;;;;20.43;100.00;101314.22;5074893;28;20021;-70
2023/09/29 09:49:24;;;;;;;13.93;3.63;;;;;;;20.38;100.00;101318.84;5074889;28;20083;-69
2023/09/29 09:51:52;;;;;;;13.07;3.80;;;;;;;20.33;100.00;101321.66;5071730;28;20025;-68
2023/09/29 09:54:21;;;;;;;12.77;3.50;;;;;;;20.42;100.00;101317.81;5072007;28;20129;-70
2023/09/29 09:57:00;;;;;;;14.07;3.70;;;;;;;20.54;100.00;101312.06;5073601;28;20112;-70
2023/09/29 09:59:27;;;;;;;14.63;3.50;;;;;;;20.62;100.00;101313.66;5074665;28;20028;-70
2023/09/29 10:01:55;;;;;;;16.90;4.20;;;;;;;20.57;100.00;101326.34;5073844;28;20024;-71
2023/09/29 10:04:25;;;;;;;14.15;3.80;;;;;;;20.63;100.00;101334.22;5074583;28;20032;-71
2023/09/29 10:06:51;;;;;;;15.98;3.72;;;;;;;20.60;100.00;101335.19;5074605;28;20052;-70
2023/09/29 10:09:16;;;;;;;17.10;4.60;;;;;;;20.60;100.00;101337.88;5074113;28;20480;-70
2023/09/29 10:11:42;;;;;;;18.45;4.95;;;;;;;20.60;100.00;101332.50;5074322;28;20066;-71
2023/09/29 10:14:08;;;;;;;13.82;3.70;;;;;;;20.47;100.00;101331.97;5074468;28;20036;-71
2023/09/29 10:16:35;;;;;;;15.27;3.80;;;;;;;20.24;100.00;101334.44;5073251;28;20032;-70
2023/09/29 10:19:12;;;;;;;13.02;3.50;;;;;;;20.14;100.00;101341.88;5074249;28;20024;-70
2023/09/29 10:21:42;;;;;;;14.13;3.80;;;;;;;20.07;100.00;101338.50;5070559;28;20028;-69
2023/09/29 10:24:11;;;;;;;13.65;3.70;;;;;;;20.10;100.00;101332.16;5073788;28;20030;-68
2023/09/29 10:26:48;;;;;;;15.45;4.00;;;;;;;20.19;100.00;101337.28;5074181;28;20036;-66
2023/09/29 10:29:24;;;;;;;15.48;3.63;;;;;;;20.32;100.00;101343.19;5071980;28;20116;-68
2023/09/29 10:31:49;;;;;;;14.30;3.80;;;;;;;20.40;100.00;101341.13;5073995;28;20035;-68
2023/09/29 10:34:21;;;;;;;17.13;3.80;;;;;;;20.43;100.00;101348.22;5074284;28;20054;-68
2023/09/29 10:36:55;;;;;;;14.18;3.90;;;;;;;20.26;100.00;101349.59;5074232;28;20052;-68
2023/09/29 10:39:26;;;;;;;14.43;3.75;;;;;;;20.33;100.00;101350.31;5074226;28;20035;-67
2023/09/29 10:42:17;;;;;;;15.45;3.60;;;;;;;20.43;100.00;101367.03;5073946;28;20023;-68
2023/09/29 10:44:52;;;;;;;13.30;3.65;;;;;;;20.38;100.00;101362.66;5068996;28;20047;-68
2023/09/29 10:47:38;;;;;;;15.00;3.50;;;;;;;20.43;100.00;101369.69;5073901;28;20380;-68
2023/09/29 10:50:10;;;;;;;16.13;3.80;;;;;;;20.34;100.00;101362.78;5069377;28;20052;-68
2023/09/29 10:52:35;;;;;;;12.40;3.50;;;;;;;20.27;100.00;101362.09;5069940;28;20025;-66
2023/09/29 10:55:04;;;;;;;13.15;3.55;;;;;;;20.28;100.00;101371.03;5072504;28;20105;-68
2023/09/29 10:57:29;;;;;;;14.00;3.58;;;;;;;20.25;100.00;101368.44;5073116;28;20032;-67
2023/09/29 11:00:01;;;;;;;12.85;3.67;;;;;;;20.25;100.00;101384.53;5073084;28;20437;-68
2023/09/29 11:02:32;;;;;;;14.33;3.70;;;;;;;20.25;100.00;101389.91;5073642;28;20020;-68
2023/09/29 11:05:00;;;;;;;13.30;3.80;;;;;;;20.36;100.00;101383.31;5073273;28;20036;-66
2023/09/29 11:07:29;;;;;;;13.43;3.60;;;;;;;21.42;100.00;101378.34;5073056;28;20296;-64
2023/09/29 11:09:59;;;;;;;15.02;3.70;;;;;;;21.56;100.00;101373.44;5073345;28;20028;-67